Time;durP1;ratioP1;P1;durP2;ratioP2;P2;SDS_P1;SDS_P2;PMS_P1;PMS_P2;Temp;Humidity;BMP_temperature;BMP_pressure;BME280_temperature;BME280_humidity;BME280_pressure;Samples;Min_cycle;Max_cycle;Signal;HPM_P1;HPM_P2
2023/02/26 14:04:21;;;;;;;;;2.00;2.00;;;;;9.32;27.69;101853.50;5081083;27;45380;-50
2023/02/26 14:06:53;;;;;;;;;2.67;2.00;;;;;9.48;27.88;101848.63;5076462;27;45328;-47
2023/02/26 14:09:21;;;;;;;;;1.67;1.00;;;;;9.57;28.03;101845.69;5075985;27;45721;-48
2023/02/26 14:12:03;;;;;;;;;3.00;3.00;;;;;9.43;28.12;101858.50;5075945;28;45345;-48
2023/02/26 14:14:28;;;;;;;;;3.00;2.00;;;;;9.21;28.70;101847.59;5075308;27;45924;-47
2023/02/26 14:17:13;;;;;;;;;4.00;2.00;;;;;8.91;28.73;101866.09;5063537;27;45483;-47
2023/02/26 14:19:51;;;;;;;;;1.00;1.00;;;;;8.78;29.01;101855.78;5076072;28;45480;-50
2023/02/26 14:22:33;;;;;;;;;1.67;1.67;;;;;8.86;28.90;101874.16;5076248;28;45380;-48
2023/02/26 14:25:26;;;;;;;;;1.00;1.00;;;;;8.99;28.66;101857.94;5074276;27;46388;-51
2023/02/26 14:28:18;;;;;;;;;2.00;2.00;;;;;9.09;29.10;101862.09;5079835;27;45438;-56
2023/02/26 14:30:47;;;;;;;;;1.00;1.00;;;;;9.06;28.45;101868.34;5067327;28;45164;-49
2023/02/26 14:33:16;;;;;;;;;3.00;2.67;;;;;8.90;28.82;101859.03;5070405;27;45460;-48
2023/02/26 14:35:48;;;;;;;;;1.00;1.00;;;;;8.71;28.92;101882.53;5072006;27;45493;-51
2023/02/26 14:38:34;;;;;;;;;2.67;2.67;;;;;8.49;29.07;101869.78;5069896;27;45409;-48
2023/02/26 14:41:32;;;;;;;;;1.33;1.00;;;;;8.34;29.55;101878.06;5069401;28;45884;-47
2023/02/26 14:44:05;;;;;;;;;1.67;1.67;;;;;8.30;29.58;101874.63;5062520;27;45493;-49
2023/02/26 14:46:31;;;;;;;;;1.33;1.33;;;;;8.14;29.76;101886.50;5072584;27;46208;-49
2023/02/26 14:48:57;;;;;;;;;4.67;2.00;;;;;7.98;30.40;101896.53;5071836;27;45449;-51
2023/02/26 14:51:34;;;;;;;;;6.00;3.00;;;;;7.81;30.32;101884.56;5071557;28;61738;-47
2023/02/26 14:54:19;;;;;;;;;4.00;4.00;;;;;7.79;30.95;101886.34;5071747;27;45488;-49
2023/02/26 14:57:06;;;;;;;;;1.00;1.00;;;;;7.80;30.86;101892.53;5084645;27;45539;-47
2023/02/26 15:00:11;;;;;;;;;2.00;1.67;;;;;7.72;30.85;101896.19;5075902;27;45469;-47
2023/02/26 15:03:01;;;;;;;;;3.67;3.67;;;;;7.66;30.91;101890.16;5016322;28;45606;-48
2023/02/26 15:05:34;;;;;;;;;2.00;2.00;;;;;7.60;31.03;101901.72;5048241;28;46497;-49
2023/02/26 15:08:06;;;;;;;;;7.33;2.00;;;;;7.62;31.05;101884.06;5045689;28;45536;-53
2023/02/26 15:11:22;;;;;;;;;2.67;2.67;;;;;7.77;31.24;101904.94;5058070;28;45373;-51
2023/02/26 15:14:06;;;;;;;;;1.67;1.00;;;;;7.83;31.04;101911.00;4960098;28;45527;-49
2023/02/26 15:16:43;;;;;;;;;2.00;2.00;;;;;7.82;31.25;101903.94;5057708;28;45314;-47
2023/02/26 15:19:43;;;;;;;;;2.00;1.00;;;;;7.69;31.20;101911.28;5054767;28;45454;-50
2023/02/26 15:22:28;;;;;;;;;2.67;2.67;;;;;7.52;31.70;101896.63;5056018;28;45669;-50
2023/02/26 15:24:53;;;;;;;;;3.67;2.67;;;;;7.49;31.58;101907.25;5057675;28;45663;-49
2023/02/26 15:27:19;;;;;;;;;3.67;3.00;;;;;7.44;31.80;101919.69;5049431;28;48749;-49
2023/02/26 15:29:45;;;;;;;;;3.00;2.67;;;;;7.37;31.50;101916.31;5053491;28;45503;-48
2023/02/26 15:32:29;;;;;;;;;2.00;2.00;;;;;7.24;31.23;101920.94;5057641;28;45275;-50
2023/02/26 15:35:10;;;;;;;;;4.67;3.00;;;;;7.07;31.69;101918.59;5052029;28;45491;-48
2023/02/26 15:37:35;;;;;;;;;3.00;3.00;;;;;7.06;31.81;101937.16;5057026;28;45416;-51
2023/02/26 15:40:04;;;;;;;;;2.33;2.33;;;;;6.98;31.95;101945.22;5054958;28;45417;-48
2023/02/26 15:42:33;;;;;;;;;3.00;3.00;;;;;6.96;32.24;101928.47;5058893;28;45743;-50
2023/02/26 15:45:00;;;;;;;;;1.00;1.00;;;;;6.94;32.37;101917.06;5051191;28;45581;-49
2023/02/26 15:47:28;;;;;;;;;2.00;2.00;;;;;6.90;32.57;101925.97;5055527;28;45656;-49
2023/02/26 15:49:53;;;;;;;;;3.33;3.33;;;;;6.89;32.49;101926.88;5052175;28;47094;-49
2023/02/26 15:52:22;;;;;;;;;3.00;3.00;;;;;6.78;32.23;101925.25;5049318;28;45739;-51
2023/02/26 15:54:51;;;;;;;;;1.67;1.33;;;;;6.74;32.46;101925.31;5053821;28;45465;-48
2023/02/26 15:57:17;;;;;;;;;4.00;3.00;;;;;6.70;32.31;101927.16;5054769;28;45439;-50
2023/02/26 15:59:44;;;;;;;;;4.00;4.00;;;;;6.66;32.57;101933.38;5056179;28;51878;-48
2023/02/26 16:02:15;;;;;;;;;3.00;3.00;;;;;6.60;32.83;101936.13;5055143;28;45392;-50
2023/02/26 16:04:42;;;;;;;;;6.00;4.00;;;;;6.55;33.11;101935.34;5050204;28;45397;-49
2023/02/26 16:07:12;;;;;;;;;4.67;4.67;;;;;6.54;33.07;101937.09;5054320;28;46089;-48
2023/02/26 16:09:48;;;;;;;;;3.00;3.00;;;;;6.53;32.41;101930.06;5040374;28;45403;-49
2023/02/26 16:12:16;;;;;;;;;4.33;3.33;;;;;6.42;32.48;101924.94;5053435;28;46281;-52
2023/02/26 16:14:49;;;;;;;;;4.67;3.67;;;;;6.42;32.56;101937.28;5055358;28;45965;-51
2023/02/26 16:17:24;;;;;;;;;1.00;1.00;;;;;6.41;33.12;101941.72;5033700;28;45582;-54
2023/02/26 16:19:50;;;;;;;;;2.33;1.00;;;;;6.36;32.98;101919.75;5048342;28;45982;-53
2023/02/26 16:22:32;;;;;;;;;2.67;2.67;;;;;6.29;33.58;101945.38;5056983;28;45343;-52
2023/02/26 16:25:00;;;;;;;;;3.67;3.67;;;;;6.29;34.04;101944.50;5053774;28;45979;-52
2023/02/26 16:27:27;;;;;;;;;6.33;3.00;;;;;6.24;34.05;101943.69;5061504;27;45608;-52
2023/02/26 16:29:55;;;;;;;;;5.00;4.00;;;;;6.19;33.83;101948.16;5042626;28;47328;-52
2023/02/26 16:32:21;;;;;;;;;7.00;3.00;;;;;6.15;33.79;101941.19;5051172;28;45856;-54
2023/02/26 16:34:53;;;;;;;;;4.00;4.00;;;;;6.12;33.93;101935.03;5061506;28;45393;-52
2023/02/26 16:37:23;;;;;;;;;6.75;6.00;;;;;6.04;34.05;101944.84;5054407;28;45366;-54
2023/02/26 16:40:16;;;;;;;;;3.00;3.00;;;;;6.06;33.58;101947.44;5061611;28;47330;-54
2023/02/26 16:42:53;;;;;;;;;2.67;2.67;;;;;6.00;33.81;101952.81;5055076;28;45551;-55
2023/02/26 16:45:37;;;;;;;;;7.00;4.67;;;;;5.96;34.13;101952.81;5054576;28;46716;-53
2023/02/26 16:48:24;;;;;;;;;6.67;4.00;;;;;5.91;33.86;101974.91;5045957;28;45426;-55
2023/02/26 16:51:00;;;;;;;;;8.00;4.00;;;;;5.96;33.98;101970.44;5044350;28;47295;-55
2023/02/26 16:53:35;;;;;;;;;4.33;3.33;;;;;5.90;34.42;101973.16;5055234;28;45449;-52
2023/02/26 16:56:00;;;;;;;;;3.33;3.33;;;;;5.88;34.36;101969.63;5061884;28;45520;-53
2023/02/26 16:58:25;;;;;;;;;3.67;3.67;;;;;5.86;34.77;101974.94;5058945;28;45566;-53
2023/02/26 17:00:58;;;;;;;;;6.67;5.00;;;;;5.85;34.33;101975.84;5044843;28;64526;-54
2023/02/26 17:03:25;;;;;;;;;4.33;2.00;;;;;5.77;34.27;101977.69;5052361;28;45800;-54
2023/02/26 17:05:59;;;;;;;;;4.00;4.00;;;;;5.71;34.34;101986.56;5050272;28;45406;-51
2023/02/26 17:08:35;;;;;;;;;4.00;4.00;;;;;5.65;34.40;101991.03;5053827;28;45524;-52
2023/02/26 17:11:09;;;;;;;;;3.00;3.00;;;;;5.60;34.50;101991.94;5066573;28;45890;-52
2023/02/26 17:13:36;;;;;;;;;4.00;4.00;;;;;5.56;34.56;102002.56;5057789;28;45526;-52
2023/02/26 17:16:04;;;;;;;;;4.00;3.33;;;;;5.52;34.96;101999.06;5062316;28;45330;-50
2023/02/26 17:18:30;;;;;;;;;4.00;4.00;;;;;5.44;35.01;102001.78;5052758;28;45704;-50
2023/02/26 17:20:57;;;;;;;;;3.00;3.00;;;;;5.38;35.08;102007.09;5065113;28;47000;-52
2023/02/26 17:23:27;;;;;;;;;6.00;4.00;;;;;5.35;34.98;102016.84;5059843;28;45395;-52
2023/02/26 17:25:55;;;;;;;;;4.00;4.00;;;;;5.30;35.39;102015.09;5044510;28;45609;-49
2023/02/26 17:28:26;;;;;;;;;2.67;2.67;;;;;5.29;35.16;102025.66;5052026;28;45576;-53
2023/02/26 17:30:51;;;;;;;;;2.00;2.00;;;;;5.26;35.56;102029.19;5060680;28;46446;-51
2023/02/26 17:33:17;;;;;;;;;5.33;3.67;;;;;5.19;35.81;102029.25;5056151;28;45427;-50
2023/02/26 17:35:43;;;;;;;;;4.50;2.75;;;;;5.16;35.63;102030.16;5056875;28;55205;-52
2023/02/26 17:38:11;;;;;;;;;3.00;3.00;;;;;5.10;35.68;102039.00;5054908;28;45504;-54
2023/02/26 17:40:38;;;;;;;;;5.00;4.00;;;;;5.08;35.92;102034.63;5052592;28;46218;-55
2023/02/26 17:43:04;;;;;;;;;4.00;4.00;;;;;5.07;35.56;102040.78;5058416;28;45401;-50
2023/02/26 17:45:31;;;;;;;;;1.33;1.33;;;;;5.11;35.71;102058.34;5062292;28;45444;-53
2023/02/26 17:47:57;;;;;;;;;3.00;3.00;;;;;5.07;35.74;102035.50;5057048;28;45426;-51
2023/02/26 17:50:53;;;;;;;;;3.00;3.00;;;;;5.04;36.17;102043.47;5060937;28;46407;-51
2023/02/26 17:53:19;;;;;;;;;3.00;3.00;;;;;5.01;35.74;102054.91;5053439;28;45342;-50
2023/02/26 17:55:46;;;;;;;;;3.00;1.25;;;;;5.00;36.29;102047.88;5057937;28;45303;-48
2023/02/26 17:58:17;;;;;;;;;3.00;1.00;;;;;4.95;36.34;102050.56;5056659;28;45594;-49
2023/02/26 18:00:44;;;;;;;;;2.67;2.33;;;;;4.95;36.48;102055.81;5061453;27;46076;-52
2023/02/26 18:03:10;;;;;;;;;4.00;3.00;;;;;4.92;36.15;102060.25;5062919;28;45347;-50
2023/02/26 18:05:37;;;;;;;;;2.00;2.00;;;;;4.89;36.12;102070.78;5051176;28;59410;-49
2023/02/26 18:08:15;;;;;;;;;2.67;2.33;;;;;4.85;36.70;102066.41;5061753;28;45738;-51
2023/02/26 18:10:40;;;;;;;;;2.00;2.00;;;;;4.82;36.39;102059.41;5051996;28;46192;-50
2023/02/26 18:13:07;;;;;;;;;4.33;2.00;;;;;4.82;36.34;102063.81;5060339;28;63806;-53
2023/02/26 18:15:33;;;;;;;;;2.00;2.00;;;;;4.79;36.50;102059.44;5060535;28;45475;-54
2023/02/26 18:17:58;;;;;;;;;3.00;2.67;;;;;4.75;36.48;102066.47;5055509;28;61807;-53
2023/02/26 18:20:23;;;;;;;;;3.00;3.00;;;;;4.74;36.83;102071.75;5057674;28;46032;-52
2023/02/26 18:22:49;;;;;;;;;1.33;0.00;;;;;4.69;36.87;102068.28;5065927;28;45418;-53
2023/02/26 18:25:16;;;;;;;;;2.33;2.33;;;;;4.69;36.82;102074.41;5064082;28;45427;-51
2023/02/26 18:27:42;;;;;;;;;2.00;2.00;;;;;4.69;36.61;102081.47;5056511;28;45362;-51
2023/02/26 18:30:21;;;;;;;;;2.50;2.50;;;;;4.66;36.79;102078.84;5062779;28;46794;-52
2023/02/26 18:32:46;;;;;;;;;3.00;3.00;;;;;4.61;37.24;102087.63;5063032;28;45530;-51
2023/02/26 18:35:11;;;;;;;;;6.00;6.00;;;;;4.61;36.83;102085.00;5056362;28;59048;-53
2023/02/26 18:37:37;;;;;;;;;4.50;3.50;;;;;4.58;37.00;102092.06;5058304;27;56818;-53
2023/02/26 18:40:02;;;;;;;;;6.00;3.00;;;;;4.57;37.17;102088.53;5062358;28;46296;-53
2023/02/26 18:42:28;;;;;;;;;3.75;3.75;;;;;4.58;36.79;102102.59;5059026;27;45400;-53
2023/02/26 18:44:54;;;;;;;;;8.00;3.00;;;;;4.56;37.27;102113.16;5050531;28;52911;-51
2023/02/26 18:47:21;;;;;;;;;4.00;4.00;;;;;4.53;37.37;102115.78;5048305;28;45705;-51
2023/02/26 18:49:48;;;;;;;;;5.33;3.00;;;;;4.54;37.33;102111.41;5056917;28;46269;-52
2023/02/26 18:52:13;;;;;;;;;6.00;4.00;;;;;4.50;37.31;102112.28;5053424;28;45418;-51
2023/02/26 18:54:39;;;;;;;;;2.67;2.67;;;;;4.50;36.99;102110.53;5065543;28;56350;-54
2023/02/26 18:57:06;;;;;;;;;2.33;2.00;;;;;4.51;37.32;102120.19;5053051;28;45556;-50
2023/02/26 18:59:33;;;;;;;;;3.00;3.00;;;;;4.49;37.53;102115.81;5063548;27;46126;-50
2023/02/26 19:01:59;;;;;;;;;3.33;2.00;;;;;4.44;37.56;102116.69;5065120;28;45384;-51
2023/02/26 19:04:24;;;;;;;;;1.33;1.33;;;;;4.39;37.46;102107.91;5056876;28;45369;-52
2023/02/26 19:06:50;;;;;;;;;4.00;2.33;;;;;4.39;37.68;102117.59;5063663;28;61431;-51
2023/02/26 19:09:15;;;;;;;;;1.33;1.33;;;;;4.38;37.78;102116.72;5060560;28;51660;-51
2023/02/26 19:11:41;;;;;;;;;4.00;3.00;;;;;4.37;37.27;102119.34;5061918;28;60276;-52
2023/02/26 19:14:07;;;;;;;;;3.75;3.75;;;;;4.35;37.67;102113.22;5061685;28;45287;-52
2023/02/26 19:16:36;;;;;;;;;4.33;4.33;;;;;4.30;37.82;102119.38;5050267;28;45518;-52
2023/02/26 19:19:04;;;;;;;;;6.00;3.00;;;;;4.28;37.98;102123.75;5058976;28;45903;-53
2023/02/26 19:21:32;;;;;;;;;8.00;4.33;;;;;4.26;37.73;102124.66;5055234;28;45497;-48
2023/02/26 19:24:02;;;;;;;;;6.50;4.50;;;;;4.24;38.11;102129.94;5061649;28;45947;-52
2023/02/26 19:26:28;;;;;;;;;4.00;2.25;;;;;4.23;38.22;102124.66;5056420;28;45514;-54
2023/02/26 19:28:53;;;;;;;;;8.50;3.00;;;;;4.22;38.27;102126.41;5059856;28;45334;-51
2023/02/26 19:31:19;;;;;;;;;6.00;3.75;;;;;4.20;37.77;102127.28;5053297;28;45304;-54
2023/02/26 19:33:45;;;;;;;;;3.00;3.00;;;;;4.20;37.85;102137.81;5059147;28;45382;-53
2023/02/26 19:36:10;;;;;;;;;4.50;3.25;;;;;4.20;38.17;102129.91;5056752;28;45486;-52
2023/02/26 19:38:35;;;;;;;;;3.25;2.50;;;;;4.19;38.08;102134.31;5062316;28;62518;-50
2023/02/26 19:41:01;;;;;;;;;3.50;3.50;;;;;4.18;38.16;102139.59;5058171;28;58266;-53
2023/02/26 19:43:26;;;;;;;;;3.00;3.00;;;;;4.17;38.16;102141.34;5060679;28;45489;-52
2023/02/26 19:45:54;;;;;;;;;3.00;3.00;;;;;4.11;38.42;102139.59;5055575;27;45260;-53
2023/02/26 19:48:20;;;;;;;;;4.33;3.00;;;;;4.08;38.34;102137.00;5066476;28;47026;-50
2023/02/26 19:50:45;;;;;;;;;3.75;3.75;;;;;4.07;38.96;102151.03;5057337;28;45490;-51
2023/02/26 19:53:10;;;;;;;;;6.00;2.75;;;;;4.08;38.33;102150.16;5061945;28;55937;-51
2023/02/26 19:55:36;;;;;;;;;4.00;4.00;;;;;4.06;38.46;102151.91;5061258;28;57051;-53
2023/02/26 19:58:01;;;;;;;;;5.00;5.00;;;;;4.02;38.95;102139.63;5065843;28;66188;-51
2023/02/26 20:00:26;;;;;;;;;3.00;3.00;;;;;4.01;38.49;102148.41;5054827;28;54379;-52
2023/02/26 20:02:52;;;;;;;;;4.25;4.25;;;;;3.98;38.91;102149.28;5049903;28;60888;-51
2023/02/26 20:05:17;;;;;;;;;1.75;1.50;;;;;3.97;38.96;102158.03;5060564;28;61259;-53
2023/02/26 20:07:44;;;;;;;;;5.00;5.00;;;;;3.96;38.64;102155.41;5069417;28;46033;-53
2023/02/26 20:10:10;;;;;;;;;7.50;5.25;;;;;3.95;39.04;102158.94;5063456;27;45460;-50
2023/02/26 20:12:36;;;;;;;;;6.00;1.25;;;;;3.94;39.09;102158.06;5069963;27;45405;-52
2023/02/26 20:15:01;;;;;;;;;4.50;3.50;;;;;3.91;39.15;102159.81;5067915;28;59792;-52
2023/02/26 20:17:27;;;;;;;;;8.00;7.50;;;;;3.89;38.93;102154.56;5060938;28;46172;-52
2023/02/26 20:19:52;;;;;;;;;7.00;7.00;;;;;3.89;39.14;102167.72;5061287;27;45588;-50
2023/02/26 20:22:21;;;;;;;;;5.50;3.00;;;;;3.88;39.16;102155.44;5062070;28;45521;-52
2023/02/26 20:24:47;;;;;;;;;6.50;6.00;;;;;3.87;38.98;102163.31;5067090;28;45323;-51
2023/02/26 20:27:12;;;;;;;;;11.25;7.00;;;;;3.87;39.39;102160.69;5062732;28;46040;-54
2023/02/26 20:29:37;;;;;;;;;9.00;7.00;;;;;3.85;39.29;102168.59;5061402;28;45358;-51
2023/02/26 20:32:03;;;;;;;;;3.00;3.00;;;;;3.86;39.28;102166.84;5070093;28;45477;-51
2023/02/26 20:34:28;;;;;;;;;6.00;3.00;;;;;3.85;39.26;102167.75;5065300;28;45446;-49
2023/02/26 20:36:54;;;;;;;;;7.50;4.00;;;;;3.84;39.24;102166.84;5061764;28;60849;-51
2023/02/26 20:39:19;;;;;;;;;7.50;6.50;;;;;3.83;39.27;102174.75;5060633;28;45286;-52
2023/02/26 20:41:45;;;;;;;;;2.33;1.00;;;;;3.79;39.45;102174.75;5059328;28;45303;-51
2023/02/26 20:44:10;;;;;;;;;5.25;3.50;;;;;3.80;39.90;102173.84;5060029;28;45385;-51
2023/02/26 20:46:37;;;;;;;;;1.50;1.50;;;;;3.80;39.61;102179.13;5065707;28;53426;-50
2023/02/26 20:49:03;;;;;;;;;2.00;2.00;;;;;3.75;39.74;102185.28;5061670;28;45714;-50
2023/02/26 20:51:28;;;;;;;;;6.50;3.00;;;;;3.72;39.57;102183.50;5045071;28;45519;-50
2023/02/26 20:53:54;;;;;;;;;3.00;3.00;;;;;3.70;39.75;102187.88;5066450;28;56703;-50
2023/02/26 20:56:19;;;;;;;;;4.25;4.25;;;;;3.68;39.67;102192.28;5065642;28;63595;-50
2023/02/26 20:58:44;;;;;;;;;4.50;3.00;;;;;3.66;40.02;102191.41;5069400;28;45496;-52
2023/02/26 21:01:10;;;;;;;;;8.75;4.25;;;;;3.64;40.00;102191.41;5062258;28;45617;-52
2023/02/26 21:03:35;;;;;;;;;11.25;5.25;;;;;3.65;39.97;102176.50;5066883;28;47380;-51
2023/02/26 21:06:00;;;;;;;;;3.00;2.75;;;;;3.63;39.86;102188.78;5059024;28;62073;-53
2023/02/26 21:08:26;;;;;;;;;4.75;3.50;;;;;3.61;39.98;102191.41;5061178;28;45361;-52
2023/02/26 21:10:51;;;;;;;;;2.75;2.75;;;;;3.64;40.42;102182.63;5060283;27;60781;-50
2023/02/26 21:13:17;;;;;;;;;2.00;2.00;;;;;3.60;40.06;102188.78;5060226;28;45315;-52
2023/02/26 21:15:42;;;;;;;;;2.75;2.50;;;;;3.59;39.99;102198.41;5065771;28;47012;-52
2023/02/26 21:18:07;;;;;;;;;5.50;4.75;;;;;3.53;40.69;102200.16;5057208;28;56733;-50
2023/02/26 21:20:33;;;;;;;;;3.25;3.00;;;;;3.52;40.34;102201.03;5062482;28;45636;-48
2023/02/26 21:22:58;;;;;;;;;5.50;5.50;;;;;3.52;40.32;102198.41;5057223;28;45608;-50
2023/02/26 21:25:24;;;;;;;;;9.50;6.50;;;;;3.51;40.56;102194.00;5057099;27;47140;-51
2023/02/26 21:27:49;;;;;;;;;7.50;4.25;;;;;3.47;40.66;102198.41;5065238;27;45361;-53
2023/02/26 21:30:15;;;;;;;;;3.00;3.00;;;;;3.46;40.88;102207.16;5066671;28;45341;-53
2023/02/26 21:32:41;;;;;;;;;7.00;3.00;;;;;3.44;40.51;102194.00;5055017;28;45357;-52
2023/02/26 21:35:08;;;;;;;;;4.50;4.25;;;;;3.44;40.59;102207.16;5061065;28;46940;-56
2023/02/26 21:37:33;;;;;;;;;10.00;6.00;;;;;3.42;40.64;102193.13;5063102;27;45508;-52
2023/02/26 21:39:58;;;;;;;;;2.00;2.00;;;;;3.42;40.80;102192.25;5051233;28;45475;-56
2023/02/26 21:42:24;;;;;;;;;5.50;3.25;;;;;3.38;40.80;102190.50;5055414;28;56216;-50
2023/02/26 21:44:49;;;;;;;;;9.00;4.25;;;;;3.36;41.04;102187.84;5052013;28;46916;-52
2023/02/26 21:47:15;;;;;;;;;2.00;1.00;;;;;3.36;41.01;102190.47;5056853;28;51421;-52
2023/02/26 21:49:40;;;;;;;;;6.00;3.00;;;;;3.35;41.10;102190.47;5049868;28;45483;-53
2023/02/26 21:52:06;;;;;;;;;4.50;4.00;;;;;3.35;40.87;102191.38;5047823;28;58916;-54
2023/02/26 21:54:32;;;;;;;;;2.75;2.75;;;;;3.31;41.37;102190.47;5048069;28;46302;-53
2023/02/26 21:56:58;;;;;;;;;2.25;2.25;;;;;3.31;40.44;102190.47;5057353;28;45871;-52
2023/02/26 21:59:23;;;;;;;;;5.75;2.00;;;;;3.29;41.02;102183.44;5066089;28;45478;-54
2023/02/26 22:01:50;;;;;;;;;5.00;5.00;;;;;3.27;41.11;102193.97;5056256;28;45382;-54
2023/02/26 22:04:15;;;;;;;;;5.75;5.75;;;;;3.24;41.78;102193.94;5050623;28;45545;-54
2023/02/26 22:06:41;;;;;;;;;3.25;2.00;;;;;3.26;41.26;102189.59;5054616;28;45332;-55
2023/02/26 22:09:06;;;;;;;;;6.75;2.75;;;;;3.25;41.31;102189.59;5054830;28;57205;-53
2023/02/26 22:11:31;;;;;;;;;5.00;5.00;;;;;3.22;41.30;102198.34;5057555;28;45661;-54
2023/02/26 22:13:57;;;;;;;;;5.00;5.00;;;;;3.23;41.36;102188.69;5053919;28;45503;-53
2023/02/26 22:16:22;;;;;;;;;5.00;5.00;;;;;3.23;41.29;102188.69;5062421;28;66291;-53
2023/02/26 22:18:48;;;;;;;;;2.25;2.25;;;;;3.21;41.73;102191.31;5065293;28;45834;-54
2023/02/26 22:21:13;;;;;;;;;2.75;2.75;;;;;3.19;41.58;102190.44;5065431;28;62297;-53
2023/02/26 22:23:38;;;;;;;;;5.00;5.00;;;;;3.19;41.71;102176.41;5063305;28;45747;-54
2023/02/26 22:26:04;;;;;;;;;4.50;4.50;;;;;3.17;41.81;102183.41;5065398;28;60279;-54
2023/02/26 22:28:29;;;;;;;;;5.50;5.50;;;;;3.16;41.83;102189.56;5057246;28;45370;-54
2023/02/26 22:30:55;;;;;;;;;6.00;5.00;;;;;3.11;41.82;102185.16;5055739;28;45528;-54
2023/02/26 22:33:23;;;;;;;;;5.25;5.25;;;;;3.10;42.14;102182.50;5055482;28;46146;-53
2023/02/26 22:35:49;;;;;;;;;5.50;3.25;;;;;3.11;41.90;102195.66;5063570;28;45494;-54
2023/02/26 22:38:14;;;;;;;;;6.50;6.00;;;;;3.09;42.20;102188.63;5064925;28;45480;-54
2023/02/26 22:40:40;;;;;;;;;6.75;5.00;;;;;3.06;42.10;102197.41;5065098;27;45220;-52
2023/02/26 22:43:05;;;;;;;;;4.50;4.50;;;;;3.07;42.28;102193.03;5066116;28;65314;-52
2023/02/26 22:45:31;;;;;;;;;6.00;3.25;;;;;3.07;42.34;102203.56;5057269;28;45733;-55
2023/02/26 22:47:56;;;;;;;;;3.00;3.00;;;;;3.06;42.16;102207.03;5059525;27;45654;-53
2023/02/26 22:50:21;;;;;;;;;8.25;6.25;;;;;3.05;42.41;102205.28;5059853;28;60867;-53
2023/02/26 22:52:48;;;;;;;;;5.00;5.00;;;;;3.02;42.12;102206.16;5061773;28;52229;-52
2023/02/26 22:55:13;;;;;;;;;5.50;5.50;;;;;2.99;42.65;102206.16;5059395;28;45629;-53
2023/02/26 22:57:39;;;;;;;;;5.00;5.00;;;;;2.96;42.47;102191.25;5057197;28;60452;-54
2023/02/26 23:00:07;;;;;;;;;7.75;5.75;;;;;2.96;42.21;102190.38;5061367;28;45386;-54
2023/02/26 23:02:33;;;;;;;;;6.25;6.25;;;;;2.94;42.90;102189.47;5069386;28;45730;-51
2023/02/26 23:04:58;;;;;;;;;5.25;5.00;;;;;2.93;42.55;102190.34;5055705;28;45818;-53
2023/02/26 23:07:23;;;;;;;;;3.75;2.00;;;;;2.93;43.17;102179.81;5067189;28;58181;-54
2023/02/26 23:09:49;;;;;;;;;6.25;6.25;;;;;2.88;43.01;102179.81;5061556;28;45474;-52
2023/02/26 23:12:14;;;;;;;;;5.75;5.75;;;;;2.84;43.02;102178.03;5053232;28;62701;-51
2023/02/26 23:14:39;;;;;;;;;6.25;5.75;;;;;2.81;42.95;102180.66;5060018;28;46602;-54
2023/02/26 23:17:05;;;;;;;;;6.25;5.00;;;;;2.76;43.20;102177.13;5054838;28;45492;-53
2023/02/26 23:19:30;;;;;;;;;6.00;6.00;;;;;2.74;43.50;102181.53;5055722;28;45340;-53
2023/02/26 23:21:55;;;;;;;;;6.75;6.75;;;;;2.70;43.57;102178.00;5060214;28;49475;-52
2023/02/26 23:24:21;;;;;;;;;2.50;2.50;;;;;2.69;43.85;102181.47;5049317;28;45278;-53
2023/02/26 23:26:47;;;;;;;;;7.50;6.75;;;;;2.67;43.49;102185.84;5059902;28;45357;-52
2023/02/26 23:29:12;;;;;;;;;7.50;7.50;;;;;2.65;43.47;102180.59;5048594;28;45410;-53
2023/02/26 23:31:38;;;;;;;;;7.75;5.75;;;;;2.65;43.89;102179.72;5060168;28;58842;-53
2023/02/26 23:34:05;;;;;;;;;1.00;0.00;;;;;2.64;43.63;102183.22;5058120;28;45612;-51
2023/02/26 23:36:31;;;;;;;;;6.00;4.50;;;;;2.62;43.94;102183.22;5056887;28;45531;-50
2023/02/26 23:38:56;;;;;;;;;6.00;6.00;;;;;2.58;44.07;102176.19;5053427;28;45676;-53
2023/02/26 23:41:22;;;;;;;;;6.50;6.50;;;;;2.56;44.08;102172.66;5058194;28;61789;-51
2023/02/26 23:43:47;;;;;;;;;6.00;6.00;;;;;2.55;43.81;102176.16;5059826;28;54215;-54
2023/02/26 23:46:13;;;;;;;;;6.75;4.50;;;;;2.54;44.39;102169.13;5057803;28;45471;-51
2023/02/26 23:48:38;;;;;;;;;5.25;5.25;;;;;2.54;44.71;102174.38;5052158;28;45375;-54
2023/02/26 23:51:04;;;;;;;;;6.75;6.00;;;;;2.53;44.15;102182.25;5054568;28;46220;-53
2023/02/26 23:53:29;;;;;;;;;6.75;5.00;;;;;2.52;44.66;102177.91;5054096;28;45441;-50
2023/02/26 23:55:57;;;;;;;;;11.50;7.50;;;;;2.51;44.47;102171.75;5057093;28;45356;-53
2023/02/26 23:58:28;;;;;;;;;5.75;5.25;;;;;2.53;45.12;102179.63;5054820;28;45552;-54
